Startpagina
METAR-TAF:

METAR-TAF

Vliegvelden :

Challis Airport

Challis, Idaho, Verenigde Staten

breedte: 44-31-22N, lengte: 114-12-54W, hoogte: 1546 m

Actueel weer

Dit bericht is 40 minuten geleden gemaakt, om 12:55 UTC
Weinig wind
Temperatuur -4°C
Vochtigheid 74%
Druk 1020 hPa
Zicht: 16.1 km
Weinig wolken op 7500 ft

METAR: KLLJ 161255Z AUTO 00000KT 10SM FEW075 M04/M08 A3011 RMK AO2 SLP212 T10391078

Tijdstip: 06:35 (13:35 UTC)


TAF: ontbreekt

Waarnemingen en weersverwachtingen van meer dan 4000 vliegvelden (METAR en TAF).

De beschikbare stations zijn de gele en rode punten op de kaart.

Ga met uw muis naar het station om de naam te zien.

Klik dan om waarnemingen en weersverwachtingen te zien.

kaart wijzigen: klik op de groene knoppen met een zwart kruis om in te zoomen, op de groene knop met een streepje om uit te zoomen of op de groene pijlen voor aangrenzende kaarten.


METAR-TAF: